Time;durP1;ratioP1;P1;durP2;ratioP2;P2;SDS_P1;SDS_P2;PMS_P1;PMS_P2;Temp;Humidity;BMP_temperature;BMP_pressure;BME280_temperature;BME280_humidity;BME280_pressure;Samples;Min_cycle;Max_cycle;Signal;HPM_P1;HPM_P2
2024/03/20 00:01:43;;;;;;;10.33;6.03;;;10.50;86.80;;;12.26;59.05;97875.66;5027104;28;20044;-41
2024/03/20 00:04:10;;;;;;;7.83;5.93;;;10.40;87.30;;;12.21;59.07;97868.13;5028005;28;20044;-41
2024/03/20 00:06:37;;;;;;;10.50;6.83;;;10.30;87.70;;;12.18;58.86;97873.81;5015773;28;20067;-41
2024/03/20 00:09:03;;;;;;;8.53;6.90;;;10.30;87.90;;;12.18;58.94;97868.47;5010218;28;20046;-41
2024/03/20 00:11:30;;;;;;;8.73;6.83;;;10.30;87.70;;;12.15;59.07;97871.44;5016767;28;20050;-41
2024/03/20 00:13:57;;;;;;;8.30;6.80;;;10.30;87.80;;;12.13;59.23;97871.59;5011141;28;20051;-41
2024/03/20 00:16:24;;;;;;;8.27;6.57;;;10.30;87.80;;;12.11;59.17;97868.28;5024793;28;20040;-41
2024/03/20 00:18:50;;;;;;;9.17;7.43;;;10.30;87.80;;;12.11;59.02;97870.94;5009876;28;20042;-41
2024/03/20 00:21:17;;;;;;;10.53;8.13;;;10.30;87.60;;;12.08;59.12;97868.63;5009222;28;20051;-41
2024/03/20 00:23:43;;;;;;;9.80;7.63;;;10.30;87.70;;;12.05;59.30;97871.59;5025945;28;20531;-41
2024/03/20 00:26:10;;;;;;;8.00;6.73;;;10.20;87.30;;;12.01;59.05;97870.28;5027719;28;20049;-41
2024/03/20 00:28:37;;;;;;;10.80;7.67;;;10.20;87.20;;;11.96;59.14;97868.13;5016779;28;20052;-42
2024/03/20 00:31:03;;;;;;;10.90;8.03;;;10.10;87.90;;;11.92;59.41;97865.91;5012497;28;20482;-41
2024/03/20 00:33:30;;;;;;;11.33;7.50;;;10.00;87.80;;;11.86;59.31;97855.88;5018928;28;20058;-42
2024/03/20 00:35:56;;;;;;;9.50;7.43;;;10.00;88.00;;;11.85;59.33;97862.22;5030971;28;20032;-41
2024/03/20 00:38:23;;;;;;;9.90;8.23;;;10.00;87.80;;;11.82;59.24;97858.03;5014007;28;20047;-41
2024/03/20 00:40:50;;;;;;;8.70;6.80;;;10.00;87.70;;;11.82;59.17;97863.38;5013176;28;20050;-41
2024/03/20 00:43:18;;;;;;;11.17;6.93;;;10.00;87.60;;;11.81;59.54;97853.72;5013586;28;20035;-41
2024/03/20 00:45:44;;;;;;;6.97;5.77;;;10.00;87.50;;;11.81;59.06;97856.38;5027913;28;20055;-42
2024/03/20 00:48:11;;;;;;;8.87;6.27;;;10.10;87.10;;;11.75;59.61;97846.38;5030772;28;20041;-41
2024/03/20 00:50:38;;;;;;;9.43;5.40;;;10.20;86.60;;;11.72;59.85;97844.84;5020044;28;20048;-41
2024/03/20 00:53:04;;;;;;;8.97;5.50;;;10.30;86.30;;;11.69;59.84;97850.53;5013181;28;20058;-41
2024/03/20 00:55:31;;;;;;;7.90;5.40;;;10.30;86.00;;;11.66;60.15;97850.84;5018147;28;20406;-41
2024/03/20 00:57:57;;;;;;;9.57;5.67;;;10.40;85.80;;;11.70;60.45;97846.00;5030828;28;20040;-41
2024/03/20 01:00:24;;;;;;;9.87;5.90;;;10.40;85.90;;;11.78;60.31;97838.03;5030672;28;20107;-41
2024/03/20 01:02:51;;;;;;;8.17;5.57;;;10.30;86.30;;;11.81;59.78;97833.19;5012554;28;20038;-41
2024/03/20 01:05:17;;;;;;;8.00;5.87;;;10.30;86.60;;;11.88;59.89;97838.69;5013307;28;20045;-41
2024/03/20 01:07:44;;;;;;;7.23;5.63;;;10.30;86.80;;;11.91;59.58;97833.06;5026764;28;20043;-41
2024/03/20 01:10:11;;;;;;;10.67;5.43;;;10.20;86.70;;;11.95;59.68;97833.59;5014041;28;20590;-41
2024/03/20 01:12:38;;;;;;;8.23;5.17;;;10.30;86.80;;;11.99;59.47;97835.75;5005067;28;20047;-41
2024/03/20 01:15:05;;;;;;;6.63;5.30;;;10.30;86.60;;;12.02;59.41;97829.25;5012787;28;20039;-41
2024/03/20 01:17:33;;;;;;;6.50;4.93;;;10.40;86.40;;;12.04;59.66;97824.59;4998531;28;20051;-41
2024/03/20 01:20:05;;;;;;;6.90;5.03;;;10.40;86.20;;;12.01;59.42;97828.41;5029838;28;20051;-41
2024/03/20 01:22:35;;;;;;;7.97;5.33;;;10.40;85.60;;;11.94;59.31;97826.56;5010044;28;20044;-41
2024/03/20 01:25:07;;;;;;;8.23;6.13;;;10.50;85.30;;;11.94;59.55;97818.56;5012764;28;20430;-41
2024/03/20 01:27:34;;;;;;;7.57;5.97;;;10.50;84.90;;;11.95;59.56;97820.25;5017215;28;20046;-41
2024/03/20 01:30:03;;;;;;;7.40;6.13;;;10.50;84.80;;;11.99;59.63;97817.06;5013932;28;20045;-43
2024/03/20 01:32:30;;;;;;;7.03;5.40;;;10.50;84.60;;;12.01;59.40;97819.56;5027761;28;20047;-41
2024/03/20 01:34:57;;;;;;;5.77;4.80;;;10.50;84.50;;;12.05;59.38;97812.91;5012733;28;20422;-41
2024/03/20 01:37:23;;;;;;;10.73;4.93;;;10.50;84.50;;;12.09;59.28;97816.91;4996316;28;20501;-41
2024/03/20 01:39:50;;;;;;;8.20;5.20;;;10.50;84.40;;;12.12;59.17;97819.25;5027568;28;20037;-41
2024/03/20 01:42:17;;;;;;;5.37;4.63;;;10.50;84.30;;;12.14;58.80;97814.59;5029304;28;20044;-41
2024/03/20 01:44:44;;;;;;;5.90;4.47;;;10.60;84.20;;;12.16;58.96;97809.09;5019402;28;20217;-41
2024/03/20 01:47:11;;;;;;;7.80;5.57;;;10.50;84.10;;;12.15;59.15;97808.22;5012508;28;20039;-41
2024/03/20 01:49:38;;;;;;;7.33;4.97;;;10.50;84.40;;;12.14;58.81;97811.91;5018004;28;20054;-41
2024/03/20 01:52:06;;;;;;;7.10;5.70;;;10.40;84.30;;;12.15;59.00;97812.75;5012501;28;20051;-41
2024/03/20 01:54:33;;;;;;;8.23;5.40;;;10.40;84.80;;;12.14;58.93;97816.41;5027410;28;20049;-41
2024/03/20 01:57:00;;;;;;;7.97;5.63;;;10.40;84.60;;;12.12;58.95;97807.75;5011319;28;20050;-41
2024/03/20 01:59:27;;;;;;;7.43;5.63;;;10.30;84.90;;;12.09;58.73;97811.56;5012293;28;20043;-41
2024/03/20 02:01:53;;;;;;;7.07;4.83;;;10.30;84.80;;;12.07;58.58;97807.41;5027992;28;20040;-41
2024/03/20 02:04:20;;;;;;;8.40;5.77;;;10.20;85.50;;;12.01;58.79;97809.72;5029430;28;20040;-41
2024/03/20 02:06:47;;;;;;;6.77;5.10;;;10.20;84.60;;;11.99;58.66;97813.56;5018219;28;20048;-41
2024/03/20 02:09:14;;;;;;;6.30;5.13;;;10.10;84.70;;;11.93;58.85;97812.41;5011956;28;20066;-41
2024/03/20 02:11:41;;;;;;;8.07;5.47;;;10.10;84.70;;;11.89;58.81;97813.72;5017942;28;20042;-41
2024/03/20 02:14:08;;;;;;;8.10;5.60;;;10.00;84.70;;;11.85;58.89;97811.53;5029311;28;20518;-41
2024/03/20 02:16:35;;;;;;;8.67;5.10;;;10.00;85.20;;;11.80;58.48;97812.84;5010649;28;20044;-41
2024/03/20 02:19:02;;;;;;;9.73;5.93;;;9.90;85.40;;;11.77;58.99;97813.19;5011868;28;20039;-41
2024/03/20 02:21:29;;;;;;;7.97;5.23;;;9.90;85.10;;;11.74;58.67;97813.50;5010696;28;20049;-41
2024/03/20 02:23:55;;;;;;;6.93;6.20;;;9.90;85.60;;;11.69;58.70;97818.53;5027763;28;20048;-41
2024/03/20 02:26:22;;;;;;;6.03;5.00;;;9.80;85.80;;;11.62;59.06;97813.00;5029213;28;20427;-42
2024/03/20 02:28:49;;;;;;;7.83;5.77;;;9.70;86.40;;;11.55;58.80;97811.13;5001279;28;20044;-41
2024/03/20 02:31:16;;;;;;;7.13;5.13;;;9.50;86.20;;;11.49;59.05;97815.28;5011203;28;20054;-41
2024/03/20 02:33:43;;;;;;;5.70;4.87;;;9.60;86.40;;;11.43;58.80;97818.59;5017753;28;20046;-41
2024/03/20 02:36:10;;;;;;;8.10;5.60;;;9.50;87.20;;;11.40;59.20;97813.63;5012685;28;20037;-41
2024/03/20 02:38:38;;;;;;;6.60;4.60;;;9.50;87.10;;;11.34;59.11;97812.44;5026605;28;20043;-41
2024/03/20 02:41:06;;;;;;;6.20;5.13;;;9.40;86.60;;;11.31;59.31;97811.91;5011146;28;20144;-41
2024/03/20 02:43:34;;;;;;;6.43;5.43;;;9.40;86.60;;;11.26;59.44;97812.38;5011491;28;20042;-41
2024/03/20 02:46:01;;;;;;;6.83;5.10;;;9.30;86.60;;;11.21;59.36;97812.88;5003476;28;20050;-41
2024/03/20 02:48:28;;;;;;;10.53;5.90;;;9.30;87.00;;;11.16;59.34;97809.84;5011267;28;20050;-41
2024/03/20 02:50:55;;;;;;;10.47;5.77;;;9.20;87.00;;;11.14;59.39;97811.00;5024952;28;20430;-41
2024/03/20 02:53:21;;;;;;;6.47;5.07;;;9.20;87.10;;;11.11;58.99;97811.31;5027869;28;20415;-41
2024/03/20 02:55:48;;;;;;;7.87;4.97;;;9.10;87.10;;;11.07;59.45;97807.31;5019546;28;20052;-41
2024/03/20 02:58:15;;;;;;;7.17;5.97;;;9.10;87.30;;;11.05;59.50;97807.50;5011124;28;20497;-41
2024/03/20 03:00:41;;;;;;;7.73;5.73;;;9.10;87.70;;;11.04;59.43;97811.16;4997965;28;20066;-41
2024/03/20 03:03:08;;;;;;;7.53;4.87;;;9.10;88.20;;;11.06;59.85;97809.16;5028550;28;20033;-41
2024/03/20 03:05:35;;;;;;;7.43;5.73;;;9.20;87.90;;;11.08;59.42;97809.00;5028486;28;20480;-41
2024/03/20 03:08:03;;;;;;;7.70;5.33;;;9.30;87.10;;;11.06;59.26;97817.16;5011017;28;20035;-41
2024/03/20 03:10:30;;;;;;;8.43;5.60;;;9.20;87.00;;;11.06;59.96;97819.81;5010544;28;20049;-41
2024/03/20 03:12:57;;;;;;;7.17;6.07;;;9.20;87.20;;;11.05;59.54;97818.16;5024683;28;20046;-41
2024/03/20 03:15:23;;;;;;;8.70;5.97;;;9.20;86.70;;;11.02;59.51;97816.63;5028392;28;20040;-41
2024/03/20 03:17:55;;;;;;;7.40;5.93;;;9.20;86.60;;;10.99;59.67;97813.44;5002528;28;20401;-41
2024/03/20 03:20:23;;;;;;;8.20;5.73;;;9.10;87.50;;;10.98;59.56;97812.63;5010271;28;20054;-41
2024/03/20 03:22:51;;;;;;;8.60;6.33;;;9.10;88.10;;;11.00;59.92;97815.97;5002870;28;20043;-41
2024/03/20 03:25:17;;;;;;;8.23;6.47;;;9.10;88.50;;;11.00;59.87;97813.28;5012019;28;20415;-41
2024/03/20 03:27:44;;;;;;;8.83;6.30;;;9.10;88.30;;;11.03;59.76;97815.66;5024004;28;20519;-41
2024/03/20 03:30:11;;;;;;;7.20;6.07;;;9.20;88.60;;;11.07;60.02;97815.31;5010893;28;20049;-41
2024/03/20 03:32:38;;;;;;;8.83;6.60;;;9.20;88.30;;;11.08;59.69;97817.81;4993867;28;20050;-41
2024/03/20 03:35:06;;;;;;;7.83;6.03;;;9.20;88.20;;;11.09;59.95;97821.31;4986553;28;20035;-41
2024/03/20 03:37:33;;;;;;;8.70;6.30;;;9.20;88.20;;;11.10;59.63;97825.66;5010318;28;20050;-41
2024/03/20 03:40:00;;;;;;;9.03;6.27;;;9.20;88.00;;;11.10;59.89;97826.47;5024764;28;20044;-41
2024/03/20 03:42:27;;;;;;;8.67;5.70;;;9.20;87.90;;;11.11;59.93;97825.50;5027529;28;20044;-41
2024/03/20 03:44:54;;;;;;;8.37;5.90;;;9.20;87.90;;;11.11;59.93;97828.16;5001291;28;20056;-41
2024/03/20 03:47:21;;;;;;;8.43;6.40;;;9.20;87.70;;;11.09;59.82;97827.50;5010223;28;20510;-41
2024/03/20 03:49:48;;;;;;;8.80;6.77;;;9.20;87.80;;;11.07;59.53;97826.81;5015479;28;20042;-41
2024/03/20 03:52:14;;;;;;;8.23;6.30;;;9.20;87.10;;;11.06;59.71;97824.31;5026876;28;20041;-41
2024/03/20 03:54:41;;;;;;;8.07;5.53;;;9.20;87.00;;;11.02;59.63;97827.28;5027238;28;20052;-41
2024/03/20 03:57:08;;;;;;;8.93;6.43;;;9.10;86.80;;;11.00;59.57;97829.28;5010241;28;20035;-41
2024/03/20 03:59:34;;;;;;;9.33;6.60;;;9.10;86.70;;;10.97;59.50;97820.75;5010165;28;20043;-41
2024/03/20 04:02:01;;;;;;;7.00;5.97;;;9.10;86.30;;;10.93;59.66;97822.91;5023805;28;20054;-41
2024/03/20 04:04:28;;;;;;;6.43;5.60;;;9.00;86.70;;;10.89;59.83;97816.22;5028314;28;20496;-41
2024/03/20 04:06:55;;;;;;;7.50;5.67;;;9.00;86.90;;;10.87;59.35;97822.72;5021812;28;20048;-41
2024/03/20 04:09:22;;;;;;;8.97;5.93;;;9.00;86.80;;;10.87;59.82;97820.06;4997679;28;20055;-41
2024/03/20 04:11:48;;;;;;;7.67;5.20;;;9.00;86.80;;;10.82;59.89;97820.53;5017846;28;20035;-41
2024/03/20 04:14:15;;;;;;;7.70;6.27;;;8.90;86.90;;;10.81;59.92;97822.34;5031473;28;20049;-41
2024/03/20 04:16:43;;;;;;;7.20;5.27;;;8.90;87.40;;;10.81;60.06;97821.53;5031471;28;20523;-41
2024/03/20 04:19:10;;;;;;;5.87;4.67;;;9.00;87.70;;;10.83;60.19;97819.53;5002557;28;20391;-41
2024/03/20 04:21:39;;;;;;;9.27;5.60;;;9.00;87.70;;;10.84;59.93;97821.22;5013501;28;20050;-41
2024/03/20 04:24:06;;;;;;;7.90;5.30;;;9.00;87.40;;;10.88;59.75;97825.22;5029833;28;20519;-42
2024/03/20 04:26:33;;;;;;;9.40;5.40;;;9.10;87.30;;;10.90;60.00;97825.06;5031284;28;20032;-41
2024/03/20 04:29:00;;;;;;;6.63;5.30;;;9.10;87.00;;;10.90;60.04;97825.91;5019655;28;20416;-41
2024/03/20 04:31:27;;;;;;;7.60;5.43;;;9.10;86.90;;;10.88;59.95;97824.41;5013298;28;20031;-41
2024/03/20 04:33:53;;;;;;;7.00;5.73;;;9.00;86.80;;;10.87;59.91;97826.22;5019825;28;20509;-41
2024/03/20 04:36:20;;;;;;;6.37;5.17;;;9.00;87.10;;;10.89;60.02;97826.88;5030687;28;20522;-41
2024/03/20 04:38:46;;;;;;;7.30;5.27;;;9.00;87.10;;;10.89;59.80;97815.41;5029602;28;20043;-42
2024/03/20 04:41:14;;;;;;;6.90;5.37;;;9.00;86.90;;;10.90;59.59;97817.91;4996330;28;20047;-41
2024/03/20 04:43:41;;;;;;;8.87;5.80;;;9.10;87.60;;;10.91;60.09;97824.91;5013520;28;20498;-46
2024/03/20 04:46:07;;;;;;;6.90;4.83;;;9.10;86.60;;;10.93;59.56;97827.41;5028735;28;20415;-41
2024/03/20 04:48:34;;;;;;;6.30;4.90;;;9.10;86.40;;;10.95;60.04;97825.41;5030710;28;20044;-41
2024/03/20 04:51:01;;;;;;;7.47;5.27;;;9.20;86.50;;;10.97;59.57;97826.94;5019897;28;20043;-41
2024/03/20 04:53:28;;;;;;;7.33;5.70;;;9.20;86.30;;;10.99;59.79;97819.63;5013325;28;20042;-41
2024/03/20 04:55:54;;;;;;;5.97;5.17;;;9.20;86.10;;;11.01;59.66;97819.44;5018845;28;20061;-41
2024/03/20 04:58:21;;;;;;;6.73;5.17;;;9.30;86.00;;;11.02;59.40;97824.63;5030497;28;20040;-41
2024/03/20 05:00:47;;;;;;;9.10;5.30;;;9.30;85.80;;;11.06;59.52;97826.97;5029708;28;20040;-41
2024/03/20 05:03:14;;;;;;;6.80;5.40;;;9.30;85.60;;;11.08;59.28;97824.97;5013233;28;20038;-41
2024/03/20 05:05:41;;;;;;;6.57;5.00;;;9.30;85.30;;;11.08;59.36;97823.16;5013122;28;20052;-41
2024/03/20 05:08:08;;;;;;;6.87;4.87;;;9.30;85.40;;;11.08;59.37;97828.47;5027255;28;20055;-41
2024/03/20 05:10:35;;;;;;;6.47;5.40;;;9.30;85.30;;;11.08;59.20;97825.81;5029898;28;20055;-41
2024/03/20 05:13:01;;;;;;;7.23;5.10;;;9.30;85.00;;;11.08;59.32;97823.16;5020923;28;20388;-41
2024/03/20 05:15:28;;;;;;;8.10;5.10;;;9.30;85.10;;;11.08;59.54;97820.47;5012865;28;20031;-42
2024/03/20 05:17:54;;;;;;;7.53;5.77;;;9.30;85.00;;;11.07;59.27;97820.63;5016581;28;20046;-41
2024/03/20 05:20:21;;;;;;;6.53;5.00;;;9.30;84.90;;;11.07;59.04;97825.97;5029404;28;20059;-41
2024/03/20 05:22:48;;;;;;;6.80;5.13;;;9.30;84.80;;;11.05;59.31;97826.16;5029879;28;20059;-41
2024/03/20 05:25:14;;;;;;;6.20;4.60;;;9.30;84.60;;;10.97;59.73;97829.59;5004855;28;20422;-41
2024/03/20 05:27:41;;;;;;;8.37;5.17;;;9.40;84.10;;;10.95;59.33;97825.41;5012852;28;20051;-41
2024/03/20 05:30:08;;;;;;;8.60;5.50;;;9.40;84.00;;;10.87;59.34;97826.22;5025445;28;20051;-41
2024/03/20 05:32:35;;;;;;;8.53;5.13;;;9.40;83.80;;;10.87;59.96;97826.22;5029610;28;20134;-41
2024/03/20 05:35:02;;;;;;;7.73;5.60;;;9.40;83.70;;;10.91;59.37;97832.88;5021413;28;20048;-41
2024/03/20 05:37:30;;;;;;;6.97;4.63;;;9.30;83.80;;;10.90;59.26;97836.56;5012754;28;20038;-41
2024/03/20 05:39:57;;;;;;;8.23;5.10;;;9.30;83.80;;;10.88;59.43;97833.22;5016905;28;20065;-41
2024/03/20 05:42:23;;;;;;;5.60;4.93;;;9.30;84.00;;;10.89;59.27;97840.19;5029508;28;20051;-41
2024/03/20 05:44:50;;;;;;;7.17;5.00;;;9.30;84.30;;;10.91;59.18;97832.88;5029878;28;20500;-41
2024/03/20 05:47:17;;;;;;;7.97;5.03;;;9.20;84.20;;;10.91;59.35;97842.72;5004555;28;20450;-41
2024/03/20 05:49:43;;;;;;;8.43;5.10;;;9.20;84.50;;;10.89;59.13;97840.19;5012088;28;20038;-41
2024/03/20 05:52:10;;;;;;;9.40;5.10;;;9.10;84.60;;;10.87;59.21;97839.53;5024692;28;20405;-41
2024/03/20 05:54:37;;;;;;;13.33;5.70;;;9.00;84.10;;;10.82;59.23;97845.34;5029801;28;20215;-41
2024/03/20 05:57:04;;;;;;;8.17;5.63;;;9.00;84.80;;;10.78;59.52;97843.16;5021420;28;20037;-41
2024/03/20 05:59:31;;;;;;;7.47;5.17;;;8.90;85.30;;;10.75;59.52;97846.13;5012076;28;20035;-41
2024/03/20 06:01:57;;;;;;;10.60;5.50;;;8.90;86.10;;;10.77;59.65;97849.47;5015094;28;20046;-41
2024/03/20 06:04:24;;;;;;;6.73;5.10;;;8.90;86.40;;;10.77;59.43;97852.13;5013155;28;20045;-41
2024/03/20 06:06:51;;;;;;;7.80;5.37;;;8.90;86.40;;;10.74;59.53;97842.63;5029491;28;20045;-41
2024/03/20 06:09:18;;;;;;;10.10;5.70;;;8.80;86.40;;;10.74;59.77;97850.63;5012427;28;20039;-41
2024/03/20 06:11:44;;;;;;;8.40;5.40;;;8.80;86.40;;;10.74;59.33;97847.97;5011254;28;20057;-41
2024/03/20 06:14:11;;;;;;;7.77;5.50;;;8.90;86.80;;;10.75;59.77;97856.78;5023709;28;20047;-41
2024/03/20 06:16:40;;;;;;;8.23;5.33;;;8.80;87.00;;;10.76;60.14;97848.63;5029309;28;20036;-42
2024/03/20 06:19:07;;;;;;;8.77;4.80;;;8.90;87.10;;;10.79;59.73;97856.28;5004431;28;20567;-41
2024/03/20 06:21:34;;;;;;;9.80;5.83;;;9.00;87.30;;;10.83;59.80;97857.66;5010619;28;20062;-41
2024/03/20 06:24:01;;;;;;;7.83;5.10;;;9.00;87.20;;;10.87;59.75;97860.00;5015783;28;20047;-41
2024/03/20 06:26:27;;;;;;;6.47;4.57;;;9.10;86.70;;;10.90;59.70;97855.19;5029121;28;20032;-42
2024/03/20 06:28:54;;;;;;;7.40;5.30;;;9.10;86.90;;;10.90;60.03;97859.69;5028326;28;20051;-41
2024/03/20 06:31:21;;;;;;;8.27;5.10;;;9.20;86.30;;;10.92;60.10;97857.72;4971572;28;20055;-41
2024/03/20 06:33:48;;;;;;;8.37;6.07;;;9.30;86.00;;;10.95;59.66;97868.91;5011541;28;20039;-41
2024/03/20 06:36:15;;;;;;;8.43;5.37;;;9.30;85.70;;;10.94;59.89;97867.22;5025020;28;20054;-41
2024/03/20 06:38:42;;;;;;;9.17;5.80;;;9.30;85.30;;;10.93;59.70;97876.19;5028741;28;20063;-41
2024/03/20 06:41:10;;;;;;;7.30;5.50;;;9.30;85.50;;;10.93;59.86;97873.50;5019992;28;20071;-43
2024/03/20 06:43:37;;;;;;;9.87;5.37;;;9.20;85.50;;;10.94;60.23;97877.03;5011434;28;20872;-42
2024/03/20 06:46:05;;;;;;;14.33;6.57;;;9.20;86.00;;;10.93;59.88;97872.69;5016254;28;20062;-41
2024/03/20 06:48:31;;;;;;;7.90;5.23;;;9.10;86.20;;;10.93;60.02;97867.34;5028660;28;20037;-41
2024/03/20 06:50:58;;;;;;;11.43;6.17;;;9.10;86.10;;;10.89;59.86;97877.50;5027653;28;20048;-41
2024/03/20 06:53:26;;;;;;;8.87;6.30;;;9.10;86.60;;;10.88;59.92;97875.00;4995004;28;20034;-41
2024/03/20 06:55:55;;;;;;;11.67;9.87;;;9.10;88.00;;;10.88;60.14;97880.34;5011198;28;20058;-41
2024/03/20 06:58:22;;;;;;;11.63;7.83;;;9.10;87.00;;;10.88;60.38;97885.66;5027503;28;20037;-41
2024/03/20 07:00:49;;;;;;;10.60;7.20;;;9.10;87.20;;;10.88;59.90;97885.66;5027972;28;20523;-41
2024/03/20 07:03:18;;;;;;;8.17;6.53;;;9.10;87.00;;;10.89;59.98;97897.97;5016194;28;20056;-41
2024/03/20 07:05:45;;;;;;;7.97;6.10;;;9.10;87.20;;;10.90;59.85;97883.69;5010758;28;20057;-41
2024/03/20 07:08:12;;;;;;;8.60;7.20;;;9.20;86.90;;;10.89;60.07;97887.31;5019583;28;20051;-40
2024/03/20 07:10:39;;;;;;;8.73;6.17;;;9.20;87.50;;;10.91;60.09;97891.47;5027610;28;20048;-41
2024/03/20 07:13:07;;;;;;;9.63;6.67;;;9.20;87.40;;;10.93;60.35;97892.16;5023121;28;20044;-41
2024/03/20 07:15:36;;;;;;;8.30;6.67;;;9.30;87.60;;;10.97;60.46;97898.00;5010734;28;20047;-41
2024/03/20 07:18:03;;;;;;;11.03;7.57;;;9.30;87.90;;;11.03;60.91;97895.56;5027502;28;20048;-41
2024/03/20 07:20:30;;;;;;;10.13;7.27;;;9.50;88.10;;;11.10;60.85;97893.09;5006461;28;20070;-41
2024/03/20 07:22:57;;;;;;;10.90;7.83;;;9.50;87.90;;;11.17;60.73;97890.66;5010303;28;20425;-41
2024/03/20 07:25:27;;;;;;;10.63;7.47;;;9.60;87.70;;;11.26;61.17;97900.34;5026753;28;20040;-41
2024/03/20 07:27:59;;;;;;;9.23;6.40;;;9.80;87.60;;;11.33;61.02;97905.88;5011310;28;20515;-41
2024/03/20 07:30:26;;;;;;;11.53;6.97;;;9.80;87.50;;;11.41;60.93;97903.25;5027882;28;20055;-41
2024/03/20 07:32:53;;;;;;;11.53;6.93;;;9.90;87.40;;;11.47;60.73;97904.44;5021253;28;20411;-41
2024/03/20 07:35:24;;;;;;;9.30;7.10;;;10.00;87.30;;;11.53;61.11;97904.63;4998476;28;20049;-41
2024/03/20 07:37:51;;;;;;;9.17;6.10;;;10.10;87.00;;;11.57;60.83;97905.13;5010324;28;20506;-41
2024/03/20 07:40:18;;;;;;;9.27;6.83;;;10.20;86.30;;;11.64;61.01;97911.50;5021059;28;20414;-40
2024/03/20 07:42:45;;;;;;;12.60;6.57;;;10.20;86.50;;;11.71;60.93;97915.19;5027035;28;20044;-40
2024/03/20 07:45:12;;;;;;;11.10;6.80;;;10.30;86.50;;;11.76;60.98;97915.53;5020700;28;20496;-40
2024/03/20 07:47:39;;;;;;;10.90;6.30;;;10.40;86.60;;;11.81;60.81;97915.88;5009653;28;20529;-40
2024/03/20 07:50:06;;;;;;;9.20;6.63;;;10.50;86.30;;;11.88;61.28;97909.91;5011941;28;20054;-40
2024/03/20 07:52:34;;;;;;;9.73;6.27;;;10.50;86.20;;;11.94;61.19;97915.47;5027050;28;20064;-40
2024/03/20 07:55:02;;;;;;;7.67;6.33;;;10.50;86.10;;;12.02;60.72;97907.47;5027480;28;20048;-40
2024/03/20 07:57:29;;;;;;;9.47;6.00;;;10.60;86.10;;;12.06;60.86;97913.31;5010250;28;20035;-40
2024/03/20 07:59:56;;;;;;;12.33;7.63;;;10.70;86.70;;;12.13;60.87;97910.81;4993821;28;20043;-41
2024/03/20 08:02:22;;;;;;;10.63;6.60;;;10.80;85.80;;;12.18;60.80;97919.19;5022549;28;20038;-40
2024/03/20 08:04:49;;;;;;;13.03;7.87;;;10.80;85.70;;;12.23;61.18;97916.81;5027301;28;20423;-40
2024/03/20 08:07:16;;;;;;;6.73;5.63;;;10.90;85.70;;;12.30;60.92;97920.50;5003131;28;20503;-41
2024/03/20 08:09:43;;;;;;;8.33;6.97;;;11.00;85.60;;;12.40;61.28;97917.69;4993677;28;20046;-41
2024/03/20 08:12:11;;;;;;;11.53;7.13;;;11.10;85.80;;;12.47;61.08;97913.34;5013045;28;20051;-41
2024/03/20 08:14:37;;;;;;;10.87;7.00;;;11.10;85.60;;;12.53;61.13;97914.53;5027224;28;20036;-42
2024/03/20 08:17:04;;;;;;;10.33;6.30;;;11.20;85.50;;;12.59;61.30;97911.19;5027173;28;20047;-41
2024/03/20 08:19:31;;;;;;;8.68;6.25;;;11.30;85.40;;;12.65;61.14;97912.34;4993610;28;20043;-41
2024/03/20 08:21:58;;;;;;;13.52;6.85;;;11.40;85.00;;;12.71;61.03;97912.50;5009207;28;20042;-41
2024/03/20 08:24:25;;;;;;;8.63;7.03;;;11.50;85.00;;;12.77;61.19;97908.31;5022859;28;20051;-42
2024/03/20 08:26:52;;;;;;;9.15;6.93;;;11.50;85.30;;;12.85;61.14;97905.63;5027018;28;20097;-41
2024/03/20 08:29:18;;;;;;;9.02;7.25;;;11.60;85.10;;;12.92;61.14;97906.63;5018432;28;20423;-41
2024/03/20 08:31:45;;;;;;;11.07;6.67;;;11.70;84.40;;;13.01;60.99;97920.84;5009181;28;20046;-42
2024/03/20 08:34:12;;;;;;;7.65;6.47;;;11.70;84.60;;;13.09;60.93;97910.13;5012736;28;20042;-41
2024/03/20 08:36:38;;;;;;;8.17;6.53;;;11.90;84.70;;;13.19;60.95;97915.28;5027126;28;20051;-41
2024/03/20 08:39:08;;;;;;;7.97;6.25;;;12.00;84.30;;;13.27;60.73;97911.75;5027045;28;20045;-43
2024/03/20 08:41:35;;;;;;;9.40;6.72;;;12.10;83.70;;;13.34;60.78;97912.75;5017696;28;20662;-43
2024/03/20 08:44:02;;;;;;;7.90;5.82;;;12.10;83.10;;;13.39;60.63;97908.53;5009666;28;20054;-43
2024/03/20 08:46:29;;;;;;;10.05;6.45;;;12.10;83.10;;;13.46;60.52;97910.56;5025244;28;20060;-43
2024/03/20 08:48:56;;;;;;;8.52;6.45;;;12.20;82.90;;;13.51;60.42;97911.69;5026547;28;20500;-43
2024/03/20 08:51:22;;;;;;;6.45;4.70;;;12.30;82.50;;;13.55;60.14;97915.69;5018621;28;20040;-42
2024/03/20 08:53:49;;;;;;;7.10;4.85;;;12.40;81.70;;;13.61;59.61;97919.50;5012875;28;20050;-43
2024/03/20 08:56:15;;;;;;;6.38;4.30;;;12.40;80.40;;;13.64;59.22;97916.47;5017004;28;20263;-42
2024/03/20 08:58:42;;;;;;;6.30;4.45;;;12.40;78.90;;;13.69;59.04;97924.81;5030022;28;20044;-42
2024/03/20 09:01:09;;;;;;;6.13;4.75;;;12.40;78.70;;;13.73;58.85;97920.78;5029792;28;20048;-42
2024/03/20 09:03:35;;;;;;;8.20;4.55;;;12.50;78.30;;;13.78;58.66;97912.22;5004786;28;20429;-44
2024/03/20 09:06:04;;;;;;;8.02;4.80;;;12.60;78.40;;;13.82;58.33;97918.06;5012918;28;20051;-42
2024/03/20 09:08:30;;;;;;;5.15;3.70;;;12.60;77.00;;;13.86;58.08;97922.91;4994067;28;20068;-42
2024/03/20 09:10:57;;;;;;;4.78;4.15;;;12.60;76.60;;;13.92;57.87;97922.19;5029716;28;20056;-43
2024/03/20 09:13:24;;;;;;;5.95;3.83;;;12.70;76.40;;;13.98;57.68;97913.47;5004617;28;20047;-43
2024/03/20 09:15:50;;;;;;;7.47;4.53;;;12.80;76.00;;;14.05;57.45;97912.75;4996300;28;20051;-42
2024/03/20 09:18:17;;;;;;;5.90;4.43;;;12.80;75.50;;;14.10;57.50;97915.75;5016447;28;20375;-42
2024/03/20 09:20:44;;;;;;;4.82;3.63;;;12.90;75.30;;;14.17;57.27;97908.66;5029476;28;20342;-43
2024/03/20 09:23:10;;;;;;;4.72;3.72;;;12.90;75.00;;;14.22;57.01;97908.97;5029547;28;20068;-46
2024/03/20 09:25:37;;;;;;;5.32;4.43;;;13.00;74.50;;;14.27;56.80;97914.63;5029882;28;20492;-44
2024/03/20 09:28:04;;;;;;;8.85;5.65;;;13.00;74.00;;;14.35;57.27;97913.75;5029910;28;20081;-43
2024/03/20 09:30:30;;;;;;;8.32;6.30;;;13.10;76.10;;;14.41;57.76;97904.16;5016357;28;20051;-45
2024/03/20 09:32:57;;;;;;;9.10;6.68;;;13.20;77.30;;;14.48;58.09;97905.09;5012434;28;20042;-44
2024/03/20 09:35:24;;;;;;;9.32;6.32;;;13.30;78.20;;;14.55;58.10;97908.72;5019593;28;20043;-45
2024/03/20 09:37:50;;;;;;;8.30;6.68;;;13.30;78.50;;;14.60;58.15;97900.16;5029584;28;20040;-44
2024/03/20 09:40:22;;;;;;;9.40;7.35;;;13.40;78.70;;;14.65;58.16;97906.66;5026894;28;20040;-43
2024/03/20 09:42:52;;;;;;;9.65;6.88;;;13.40;78.70;;;14.69;58.28;97899.91;5011926;28;20410;-44
2024/03/20 09:45:20;;;;;;;10.05;7.32;;;13.50;78.80;;;14.76;58.46;97905.41;5014778;28;20047;-46
2024/03/20 09:47:49;;;;;;;8.68;6.78;;;13.50;79.00;;;14.82;58.27;97909.19;5029411;28;20059;-45
2024/03/20 09:50:16;;;;;;;9.75;7.35;;;13.60;78.60;;;14.84;58.07;97899.94;5028614;28;20515;-44
2024/03/20 09:52:44;;;;;;;11.07;7.03;;;13.60;78.40;;;14.88;57.99;97901.25;5011722;28;20414;-44
2024/03/20 09:55:16;;;;;;;9.60;6.85;;;13.60;78.10;;;14.93;57.80;97898.03;5011760;28;20421;-43
2024/03/20 09:57:45;;;;;;;7.40;5.93;;;13.70;77.60;;;14.98;57.71;97894.78;5004414;28;20042;-45
2024/03/20 10:00:16;;;;;;;10.23;6.35;;;13.70;77.20;;;15.05;57.36;97906.47;5011894;28;20066;-45
2024/03/20 10:02:48;;;;;;;10.55;8.20;;;13.80;76.70;;;15.09;57.34;97899.72;5002514;28;20039;-43
2024/03/20 10:05:15;;;;;;;7.50;6.45;;;13.90;76.50;;;15.14;57.22;97898.16;5015230;28;20051;-44
2024/03/20 10:07:44;;;;;;;12.90;7.82;;;14.00;76.00;;;15.19;56.84;97897.59;4986257;28;20043;-44
2024/03/20 10:10:15;;;;;;;7.57;6.15;;;14.00;75.40;;;15.26;56.92;97897.69;5008993;28;20433;-40
2024/03/20 10:12:45;;;;;;;5.65;4.70;;;14.00;74.90;;;15.29;56.51;97895.44;5028454;28;20419;-42
2024/03/20 10:15:13;;;;;;;8.65;5.60;;;14.10;74.70;;;15.34;56.29;97894.91;5028954;28;20033;-43
2024/03/20 10:17:44;;;;;;;9.18;5.93;;;14.20;74.40;;;15.39;56.08;97888.97;5013162;28;20054;-42
2024/03/20 10:20:22;;;;;;;9.02;5.60;;;14.20;73.80;;;15.45;55.99;97897.13;5008603;28;20039;-43
2024/03/20 10:22:50;;;;;;;8.50;6.10;;;14.30;73.50;;;15.49;56.08;97895.75;4991568;28;20041;-41